Time;durP1;ratioP1;P1;durP2;ratioP2;P2;SDS_P1;SDS_P2;PMS_P1;PMS_P2;Temp;Humidity;BMP_temperature;BMP_pressure;BME280_temperature;BME280_humidity;BME280_pressure;Samples;Min_cycle;Max_cycle;Signal;HPM_P1;HPM_P2
2023/09/29 00:00:54;;;;;;;12.15;7.68;;;;;;;;;;2074390;28;20042;-56
2023/09/29 00:01:57;;;;;;;14.35;8.00;;;;;;;;;;2074334;28;20040;-57
2023/09/29 00:02:57;;;;;;;11.25;7.22;;;;;;;;;;2073977;28;20045;-57
2023/09/29 00:03:59;;;;;;;12.52;7.30;;;;;;;;;;2074326;28;20393;-57
2023/09/29 00:05:01;;;;;;;14.15;7.55;;;;;;;;;;2073636;28;20045;-57
2023/09/29 00:06:03;;;;;;;10.75;7.32;;;;;;;;;;2074360;28;20069;-57
2023/09/29 00:07:05;;;;;;;14.88;7.60;;;;;;;;;;2074815;28;20080;-57
2023/09/29 00:08:07;;;;;;;12.63;7.55;;;;;;;;;;2074618;28;20049;-56
2023/09/29 00:09:08;;;;;;;13.90;7.95;;;;;;;;;;2074288;28;20050;-57
2023/09/29 00:10:09;;;;;;;11.95;7.85;;;;;;;;;;2074510;28;20050;-57
2023/09/29 00:11:12;;;;;;;13.82;7.63;;;;;;;;;;2074320;28;20050;-57
2023/09/29 00:12:12;;;;;;;12.38;7.78;;;;;;;;;;2074765;28;20034;-57
2023/09/29 00:13:13;;;;;;;11.70;7.30;;;;;;;;;;2074127;28;20053;-57
2023/09/29 00:14:14;;;;;;;12.75;8.02;;;;;;;;;;2074144;28;20053;-57
2023/09/29 00:15:15;;;;;;;13.68;7.68;;;;;;;;;;2074279;28;20054;-57
2023/09/29 00:16:16;;;;;;;13.82;7.88;;;;;;;;;;2074625;28;20042;-57
2023/09/29 00:17:17;;;;;;;10.45;8.13;;;;;;;;;;2074347;28;20046;-57
2023/09/29 00:18:17;;;;;;;16.13;8.48;;;;;;;;;;2074654;28;20504;-57
2023/09/29 00:19:18;;;;;;;12.45;7.35;;;;;;;;;;2074421;28;20053;-57
2023/09/29 00:20:25;;;;;;;16.05;7.57;;;;;;;;;;2074736;28;20041;-57
2023/09/29 00:21:25;;;;;;;11.10;7.30;;;;;;;;;;2074816;28;20049;-57
2023/09/29 00:22:26;;;;;;;10.55;7.68;;;;;;;;;;2074526;28;20030;-57
2023/09/29 00:23:28;;;;;;;12.93;7.13;;;;;;;;;;2074528;28;20053;-57
2023/09/29 00:24:29;;;;;;;13.55;7.72;;;;;;;;;;2074638;28;20029;-57
2023/09/29 00:25:30;;;;;;;9.82;7.15;;;;;;;;;;2073836;28;20049;-57
2023/09/29 00:26:30;;;;;;;13.77;7.32;;;;;;;;;;2073289;28;20498;-57
2023/09/29 00:27:31;;;;;;;12.90;8.00;;;;;;;;;;2074684;28;20124;-57
2023/09/29 00:28:32;;;;;;;11.35;7.57;;;;;;;;;;2074358;28;20046;-56
2023/09/29 00:29:33;;;;;;;15.32;8.38;;;;;;;;;;2074475;28;20410;-57
2023/09/29 00:30:34;;;;;;;11.48;7.70;;;;;;;;;;2074103;28;20042;-57
2023/09/29 00:31:35;;;;;;;11.27;7.32;;;;;;;;;;2073791;28;20034;-57
2023/09/29 00:32:36;;;;;;;10.32;7.40;;;;;;;;;;2072972;28;20070;-57
2023/09/29 00:33:37;;;;;;;13.98;8.18;;;;;;;;;;2074670;28;20030;-57
2023/09/29 00:34:37;;;;;;;12.85;8.00;;;;;;;;;;2073354;28;20096;-57
2023/09/29 00:35:38;;;;;;;13.98;8.02;;;;;;;;;;2073290;28;20045;-57
2023/09/29 00:36:39;;;;;;;13.35;7.43;;;;;;;;;;2073036;28;20048;-57
2023/09/29 00:37:40;;;;;;;13.95;7.63;;;;;;;;;;2073579;28;20385;-57
2023/09/29 00:38:41;;;;;;;14.35;7.63;;;;;;;;;;2049378;28;20043;-57
2023/09/29 00:39:41;;;;;;;15.73;8.43;;;;;;;;;;2057694;28;20459;-57
2023/09/29 00:40:42;;;;;;;15.88;8.00;;;;;;;;;;2073246;28;20042;-57
2023/09/29 00:41:43;;;;;;;13.25;7.80;;;;;;;;;;2073959;28;20091;-57
2023/09/29 00:42:44;;;;;;;15.80;8.35;;;;;;;;;;2065767;28;20482;-57
2023/09/29 00:43:45;;;;;;;13.32;7.95;;;;;;;;;;2065530;28;20038;-57
2023/09/29 00:44:46;;;;;;;13.48;8.23;;;;;;;;;;2065875;28;20033;-56
2023/09/29 00:45:47;;;;;;;15.73;7.78;;;;;;;;;;2073660;28;20061;-57
2023/09/29 00:46:48;;;;;;;12.50;8.98;;;;;;;;;;2074254;28;20038;-57
2023/09/29 00:47:50;;;;;;;18.90;8.50;;;;;;;;;;2073059;28;20041;-57
2023/09/29 00:48:52;;;;;;;10.95;7.82;;;;;;;;;;2072761;28;20493;-57
2023/09/29 00:49:53;;;;;;;12.80;8.40;;;;;;;;;;2073955;28;20061;-56
2023/09/29 00:50:54;;;;;;;11.43;8.75;;;;;;;;;;2072955;28;20048;-57
2023/09/29 00:52:01;;;;;;;13.50;8.43;;;;;;;;;;2072482;28;20478;-57
2023/09/29 00:53:09;;;;;;;13.68;8.43;;;;;;;;;;2072753;28;20520;-57
2023/09/29 00:54:10;;;;;;;13.52;7.88;;;;;;;;;;2073285;28;20053;-57
2023/09/29 00:55:11;;;;;;;12.23;8.27;;;;;;;;;;2073596;28;20038;-56
2023/09/29 00:56:12;;;;;;;14.55;7.82;;;;;;;;;;2073124;28;20038;-57
2023/09/29 00:57:13;;;;;;;15.38;8.32;;;;;;;;;;2074337;28;20045;-57
2023/09/29 00:58:14;;;;;;;11.65;8.27;;;;;;;;;;2073795;28;20064;-57
2023/09/29 00:59:15;;;;;;;12.93;7.97;;;;;;;;;;2073690;28;20057;-57
2023/09/29 01:00:30;;;;;;;13.43;7.95;;;;;;;;;;2074038;28;20406;-57
2023/09/29 01:01:34;;;;;;;13.63;8.30;;;;;;;;;;2073921;28;20049;-56
2023/09/29 01:02:37;;;;;;;15.55;8.15;;;;;;;;;;2065903;28;20512;-56
2023/09/29 01:03:37;;;;;;;11.80;8.20;;;;;;;;;;2073056;28;20046;-57
2023/09/29 01:04:38;;;;;;;14.10;8.90;;;;;;;;;;2073743;28;20481;-57
2023/09/29 01:05:47;;;;;;;11.57;8.40;;;;;;;;;;2065586;28;20034;-57
2023/09/29 01:06:49;;;;;;;13.40;7.97;;;;;;;;;;2073771;28;20026;-57
2023/09/29 01:07:51;;;;;;;13.35;9.02;;;;;;;;;;2074308;28;20374;-57
2023/09/29 01:08:52;;;;;;;15.57;8.02;;;;;;;;;;2073860;28;20042;-57
2023/09/29 01:09:52;;;;;;;12.23;8.18;;;;;;;;;;2073765;28;20061;-57
2023/09/29 01:10:53;;;;;;;15.57;8.75;;;;;;;;;;2074334;28;20489;-57
2023/09/29 01:11:55;;;;;;;12.40;8.80;;;;;;;;;;2073785;28;20054;-57
2023/09/29 01:12:56;;;;;;;13.15;8.48;;;;;;;;;;2073816;28;20038;-56
2023/09/29 01:13:57;;;;;;;12.68;8.75;;;;;;;;;;2073040;28;20548;-56
2023/09/29 01:14:57;;;;;;;12.60;8.43;;;;;;;;;;2072635;28;20397;-56
2023/09/29 01:15:59;;;;;;;11.13;8.13;;;;;;;;;;2074493;28;20101;-57
2023/09/29 01:17:00;;;;;;;14.60;8.55;;;;;;;;;;2074330;28;20033;-57
2023/09/29 01:18:01;;;;;;;13.10;8.65;;;;;;;;;;2074229;28;20469;-56
2023/09/29 01:19:01;;;;;;;11.02;7.68;;;;;;;;;;2072993;28;20049;-57
2023/09/29 01:20:05;;;;;;;13.00;7.97;;;;;;;;;;2065417;28;20038;-57
2023/09/29 01:21:06;;;;;;;12.30;8.25;;;;;;;;;;2072906;28;20048;-57
2023/09/29 01:22:07;;;;;;;15.15;9.07;;;;;;;;;;2074128;28;20540;-57
2023/09/29 01:23:08;;;;;;;14.02;8.80;;;;;;;;;;2074107;28;20042;-56
2023/09/29 01:24:08;;;;;;;11.63;8.45;;;;;;;;;;2074105;28;20481;-56
2023/09/29 01:25:10;;;;;;;11.98;9.10;;;;;;;;;;2074055;28;20501;-57
2023/09/29 01:26:10;;;;;;;10.73;7.78;;;;;;;;;;2073778;28;20046;-58
2023/09/29 01:27:11;;;;;;;12.85;8.63;;;;;;;;;;2074093;28;20470;-57
2023/09/29 01:28:12;;;;;;;12.68;9.00;;;;;;;;;;2074018;28;20056;-57
2023/09/29 01:29:13;;;;;;;13.77;8.20;;;;;;;;;;2073355;28;20494;-58
2023/09/29 01:30:13;;;;;;;14.48;8.93;;;;;;;;;;2073563;28;20041;-57
2023/09/29 01:31:14;;;;;;;11.32;8.40;;;;;;;;;;2074256;28;20473;-56
2023/09/29 01:32:15;;;;;;;15.18;8.35;;;;;;;;;;2074037;28;20038;-56
2023/09/29 01:33:15;;;;;;;13.55;7.97;;;;;;;;;;2073679;28;20060;-57
2023/09/29 01:34:16;;;;;;;14.50;8.38;;;;;;;;;;2073988;28;20041;-57
2023/09/29 01:35:17;;;;;;;9.93;7.75;;;;;;;;;;2074040;28;20060;-57
2023/09/29 01:36:18;;;;;;;11.88;7.18;;;;;;;;;;2073688;28;20053;-57
2023/09/29 01:37:21;;;;;;;12.10;8.40;;;;;;;;;;2073460;28;20049;-56
2023/09/29 01:38:22;;;;;;;12.82;7.70;;;;;;;;;;2072418;28;20046;-57
2023/09/29 01:39:23;;;;;;;11.00;7.53;;;;;;;;;;2074152;28;20414;-57
2023/09/29 01:40:23;;;;;;;11.32;8.15;;;;;;;;;;2073249;28;20034;-57
2023/09/29 01:41:24;;;;;;;12.23;8.52;;;;;;;;;;2073104;28;20413;-57
2023/09/29 01:42:25;;;;;;;13.25;8.52;;;;;;;;;;2075594;28;20466;-57
2023/09/29 01:43:26;;;;;;;14.70;8.68;;;;;;;;;;2074171;28;20057;-60
2023/09/29 01:44:27;;;;;;;13.88;8.32;;;;;;;;;;2074525;28;20041;-56
2023/09/29 01:45:27;;;;;;;13.13;8.23;;;;;;;;;;2074932;28;20192;-57
2023/09/29 01:46:29;;;;;;;14.60;8.13;;;;;;;;;;2075145;28;20041;-56
2023/09/29 01:47:30;;;;;;;12.35;8.55;;;;;;;;;;2073653;28;20100;-57
2023/09/29 01:48:31;;;;;;;12.43;8.07;;;;;;;;;;2072886;28;20184;-57
2023/09/29 01:49:31;;;;;;;12.00;7.95;;;;;;;;;;2073814;28;20054;-57
2023/09/29 01:50:32;;;;;;;12.15;8.27;;;;;;;;;;2073656;28;20441;-57
2023/09/29 01:51:33;;;;;;;13.73;8.63;;;;;;;;;;2074268;28;20056;-57
2023/09/29 01:52:34;;;;;;;15.18;8.90;;;;;;;;;;2073812;28;20398;-57
2023/09/29 01:53:34;;;;;;;15.80;9.30;;;;;;;;;;2073615;28;20583;-57
2023/09/29 01:54:38;;;;;;;16.45;9.13;;;;;;;;;;2073514;28;20489;-57
2023/09/29 01:55:39;;;;;;;17.58;9.10;;;;;;;;;;2073119;28;20045;-57
2023/09/29 01:56:40;;;;;;;15.23;9.13;;;;;;;;;;2072724;28;20385;-57
2023/09/29 01:57:43;;;;;;;14.07;9.63;;;;;;;;;;2064284;28;20043;-57
2023/09/29 01:58:44;;;;;;;12.98;8.95;;;;;;;;;;2065257;28;20034;-57
2023/09/29 01:59:45;;;;;;;13.57;9.60;;;;;;;;;;2065023;28;20418;-57
2023/09/29 02:00:46;;;;;;;12.23;8.43;;;;;;;;;;2065000;28;20113;-57
2023/09/29 02:01:47;;;;;;;12.68;9.50;;;;;;;;;;2073360;28;20130;-57
2023/09/29 02:02:47;;;;;;;13.93;8.93;;;;;;;;;;2073421;28;20458;-57
2023/09/29 02:03:48;;;;;;;13.38;9.25;;;;;;;;;;2073443;28;20034;-57
2023/09/29 02:04:49;;;;;;;14.23;9.98;;;;;;;;;;2064495;28;20090;-57
2023/09/29 02:05:50;;;;;;;16.40;9.52;;;;;;;;;;2073232;28;20072;-57
2023/09/29 02:06:51;;;;;;;14.30;9.23;;;;;;;;;;2072681;28;20066;-57
2023/09/29 02:07:52;;;;;;;13.13;9.80;;;;;;;;;;2073256;28;20046;-57
2023/09/29 02:08:53;;;;;;;16.00;10.52;;;;;;;;;;2073706;28;20042;-57
2023/09/29 02:09:54;;;;;;;14.55;10.13;;;;;;;;;;2073943;28;20060;-57
2023/09/29 02:10:55;;;;;;;15.13;9.15;;;;;;;;;;2073108;28;20046;-57
2023/09/29 02:11:55;;;;;;;15.13;9.35;;;;;;;;;;2072673;28;20065;-57
2023/09/29 02:12:57;;;;;;;15.60;9.52;;;;;;;;;;2073781;28;20030;-57
2023/09/29 02:13:58;;;;;;;12.50;9.63;;;;;;;;;;2072535;28;20045;-58
2023/09/29 02:14:59;;;;;;;11.70;8.65;;;;;;;;;;2064739;28;20038;-58
2023/09/29 02:16:00;;;;;;;13.10;9.18;;;;;;;;;;2064949;28;20073;-57
2023/09/29 02:17:02;;;;;;;15.57;8.85;;;;;;;;;;2064600;28;20059;-57
2023/09/29 02:18:04;;;;;;;11.90;8.50;;;;;;;;;;2065140;28;20057;-57
2023/09/29 02:19:04;;;;;;;11.82;8.50;;;;;;;;;;2064599;28;20046;-57
2023/09/29 02:20:12;;;;;;;11.93;8.55;;;;;;;;;;2064794;28;20490;-56
2023/09/29 02:21:18;;;;;;;14.32;7.80;;;;;;;;;;2065523;28;20047;-57
2023/09/29 02:22:19;;;;;;;12.23;8.82;;;;;;;;;;2066185;28;20031;-57
2023/09/29 02:23:22;;;;;;;13.25;8.65;;;;;;;;;;2073211;28;20030;-57
2023/09/29 02:24:25;;;;;;;12.50;8.68;;;;;;;;;;2072397;28;20057;-57
2023/09/29 02:25:26;;;;;;;11.75;7.90;;;;;;;;;;2065377;28;20466;-57
2023/09/29 02:26:29;;;;;;;12.40;8.60;;;;;;;;;;2073253;28;20042;-57
2023/09/29 02:27:29;;;;;;;13.95;8.50;;;;;;;;;;2073865;28;20386;-57
2023/09/29 02:28:32;;;;;;;14.15;9.18;;;;;;;;;;2073875;28;20036;-57
2023/09/29 02:29:32;;;;;;;13.85;9.40;;;;;;;;;;2072574;28;20493;-57
2023/09/29 02:30:34;;;;;;;13.40;9.45;;;;;;;;;;2064892;28;20038;-57
2023/09/29 02:31:36;;;;;;;14.48;9.05;;;;;;;;;;2073437;28;20040;-57
2023/09/29 02:32:37;;;;;;;15.38;7.93;;;;;;;;;;2072569;28;20038;-57
2023/09/29 02:33:39;;;;;;;15.80;9.13;;;;;;;;;;2065119;28;20042;-58
2023/09/29 02:34:42;;;;;;;12.77;8.52;;;;;;;;;;2072540;28;20041;-57
2023/09/29 02:35:42;;;;;;;11.57;8.55;;;;;;;;;;2072711;28;20050;-57
2023/09/29 02:36:43;;;;;;;15.20;9.35;;;;;;;;;;2072463;28;20152;-57
2023/09/29 02:37:44;;;;;;;12.57;8.93;;;;;;;;;;2072615;28;20509;-57
2023/09/29 02:38:45;;;;;;;13.93;9.05;;;;;;;;;;2073434;28;20121;-57
2023/09/29 02:39:46;;;;;;;13.23;8.80;;;;;;;;;;2073134;28;20077;-57
2023/09/29 02:40:47;;;;;;;13.15;8.75;;;;;;;;;;2064425;28;20049;-57
2023/09/29 02:41:48;;;;;;;14.65;9.55;;;;;;;;;;2072334;28;20057;-57
2023/09/29 02:42:49;;;;;;;12.45;8.40;;;;;;;;;;2072978;28;20046;-57
2023/09/29 02:43:50;;;;;;;13.65;8.63;;;;;;;;;;2072500;28;20037;-57
2023/09/29 02:44:50;;;;;;;14.65;9.23;;;;;;;;;;2073139;28;20042;-57
2023/09/29 02:45:51;;;;;;;11.98;7.88;;;;;;;;;;2073710;28;20145;-57
2023/09/29 02:46:52;;;;;;;14.32;8.52;;;;;;;;;;2073457;28;20042;-57
2023/09/29 02:47:53;;;;;;;11.70;8.32;;;;;;;;;;2073710;28;20038;-57
2023/09/29 02:48:53;;;;;;;13.93;8.82;;;;;;;;;;2073571;28;20050;-57
2023/09/29 02:49:56;;;;;;;15.18;8.50;;;;;;;;;;2073396;28;20049;-57
2023/09/29 02:50:57;;;;;;;12.05;8.50;;;;;;;;;;2073078;28;20061;-57
2023/09/29 02:51:58;;;;;;;12.43;8.25;;;;;;;;;;2073554;28;20064;-57
2023/09/29 02:52:58;;;;;;;13.55;8.57;;;;;;;;;;2073776;28;20050;-57
2023/09/29 02:53:59;;;;;;;14.48;7.97;;;;;;;;;;2073431;28;20065;-57
2023/09/29 02:55:00;;;;;;;12.18;7.97;;;;;;;;;;2073738;28;20484;-57
2023/09/29 02:56:01;;;;;;;12.27;8.15;;;;;;;;;;2073557;28;20041;-57
2023/09/29 02:57:02;;;;;;;11.73;9.00;;;;;;;;;;2064904;28;20053;-57
2023/09/29 02:58:03;;;;;;;10.77;7.68;;;;;;;;;;2073139;28;20069;-57
2023/09/29 02:59:06;;;;;;;15.35;9.32;;;;;;;;;;2073747;28;20117;-57
2023/09/29 03:00:10;;;;;;;13.82;9.13;;;;;;;;;;2073226;28;20041;-57
2023/09/29 03:01:16;;;;;;;13.45;8.98;;;;;;;;;;2072917;28;20049;-57
2023/09/29 03:02:17;;;;;;;11.77;8.20;;;;;;;;;;2073480;28;20034;-57
2023/09/29 03:03:18;;;;;;;15.07;9.45;;;;;;;;;;2073695;28;20409;-57
2023/09/29 03:04:19;;;;;;;15.63;9.38;;;;;;;;;;2073601;28;20041;-57
2023/09/29 03:05:21;;;;;;;13.27;9.02;;;;;;;;;;2073235;28;20054;-57
2023/09/29 03:06:21;;;;;;;13.32;9.27;;;;;;;;;;2072214;28;20042;-57
2023/09/29 03:07:22;;;;;;;15.90;9.18;;;;;;;;;;2072206;28;20057;-57
2023/09/29 03:08:23;;;;;;;13.52;9.43;;;;;;;;;;2073550;28;20081;-57
2023/09/29 03:09:25;;;;;;;12.43;8.75;;;;;;;;;;2073509;28;20050;-57
2023/09/29 03:10:27;;;;;;;14.40;9.82;;;;;;;;;;2073692;28;20042;-57
2023/09/29 03:11:28;;;;;;;13.23;9.02;;;;;;;;;;2073397;28;20057;-57
2023/09/29 03:12:29;;;;;;;16.13;10.13;;;;;;;;;;2073294;28;20072;-57
2023/09/29 03:13:30;;;;;;;15.82;8.85;;;;;;;;;;2073643;28;20030;-57
2023/09/29 03:14:30;;;;;;;13.77;9.20;;;;;;;;;;2072889;28;20038;-57
2023/09/29 03:15:31;;;;;;;13.20;9.32;;;;;;;;;;2073548;28;20050;-57
2023/09/29 03:16:34;;;;;;;15.38;9.70;;;;;;;;;;2075431;28;20038;-57
2023/09/29 03:17:35;;;;;;;15.52;9.45;;;;;;;;;;2073450;28;20045;-59
2023/09/29 03:18:36;;;;;;;12.52;8.55;;;;;;;;;;2074528;28;20021;-57
2023/09/29 03:19:36;;;;;;;14.25;10.27;;;;;;;;;;2074602;28;20042;-56
2023/09/29 03:20:37;;;;;;;13.52;9.57;;;;;;;;;;2073415;28;20081;-57
2023/09/29 03:21:38;;;;;;;14.70;9.30;;;;;;;;;;2074471;28;20030;-57
2023/09/29 03:22:43;;;;;;;13.98;9.15;;;;;;;;;;2074979;28;20041;-57
2023/09/29 03:23:45;;;;;;;10.75;8.25;;;;;;;;;;2075050;28;20513;-57
2023/09/29 03:24:45;;;;;;;13.02;9.13;;;;;;;;;;2074414;28;20049;-57
2023/09/29 03:25:46;;;;;;;12.55;8.57;;;;;;;;;;2075181;28;20050;-57
2023/09/29 03:26:49;;;;;;;17.92;9.35;;;;;;;;;;2073999;28;20042;-56
2023/09/29 03:27:50;;;;;;;12.10;8.95;;;;;;;;;;2073615;28;20049;-57
2023/09/29 03:28:51;;;;;;;13.50;9.48;;;;;;;;;;2074246;28;20034;-57
2023/09/29 03:29:52;;;;;;;13.40;9.65;;;;;;;;;;2057614;28;20495;-57
2023/09/29 03:30:53;;;;;;;12.20;8.77;;;;;;;;;;2058094;28;20050;-57
2023/09/29 03:31:54;;;;;;;14.48;9.40;;;;;;;;;;2073697;28;20125;-57
2023/09/29 03:32:57;;;;;;;13.50;9.35;;;;;;;;;;2075027;28;20030;-57
2023/09/29 03:33:57;;;;;;;11.68;8.35;;;;;;;;;;2074810;28;20060;-57
2023/09/29 03:34:58;;;;;;;15.68;9.50;;;;;;;;;;2075015;28;20033;-57
2023/09/29 03:35:59;;;;;;;15.80;9.18;;;;;;;;;;2074872;28;20041;-57
2023/09/29 03:36:59;;;;;;;14.73;8.43;;;;;;;;;;2075015;28;20385;-57
2023/09/29 03:38:00;;;;;;;14.50;8.60;;;;;;;;;;2075052;28;20041;-57
2023/09/29 03:39:05;;;;;;;12.13;8.48;;;;;;;;;;2074750;28;20033;-57
2023/09/29 03:40:08;;;;;;;12.95;9.02;;;;;;;;;;2074623;28;20141;-57
2023/09/29 03:41:10;;;;;;;11.27;8.32;;;;;;;;;;2074902;28;20050;-57
2023/09/29 03:42:11;;;;;;;13.98;8.30;;;;;;;;;;2075052;28;20030;-57
2023/09/29 03:43:11;;;;;;;12.35;7.85;;;;;;;;;;2074848;28;20466;-57
2023/09/29 03:44:12;;;;;;;11.48;7.78;;;;;;;;;;2074586;28;20045;-57
2023/09/29 03:45:14;;;;;;;10.20;7.95;;;;;;;;;;2074949;28;20037;-57
2023/09/29 03:46:20;;;;;;;12.02;8.93;;;;;;;;;;2074782;28;20050;-57
2023/09/29 03:47:21;;;;;;;12.23;8.13;;;;;;;;;;2074904;28;20389;-57
2023/09/29 03:48:22;;;;;;;13.32;7.30;;;;;;;;;;2074550;28;20053;-60
2023/09/29 03:49:23;;;;;;;13.95;6.85;;;;;;;;;;2075006;28;20426;-57
2023/09/29 03:50:24;;;;;;;12.43;8.00;;;;;;;;;;2074694;28;20049;-57
2023/09/29 03:51:24;;;;;;;11.13;8.05;;;;;;;;;;2074659;28;20409;-57
2023/09/29 03:52:25;;;;;;;9.77;6.88;;;;;;;;;;2074705;28;20046;-57
2023/09/29 03:53:28;;;;;;;12.25;7.05;;;;;;;;;;2074956;28;20085;-58
2023/09/29 03:54:29;;;;;;;10.23;7.75;;;;;;;;;;2074726;28;20050;-57
2023/09/29 03:55:29;;;;;;;10.55;7.15;;;;;;;;;;2074815;28;20046;-57
2023/09/29 03:56:30;;;;;;;10.02;7.35;;;;;;;;;;2074715;28;20046;-57
2023/09/29 03:57:32;;;;;;;11.13;7.38;;;;;;;;;;2074347;28;20056;-57
2023/09/29 03:58:33;;;;;;;11.18;7.43;;;;;;;;;;2074536;28;20033;-57
2023/09/29 03:59:34;;;;;;;12.10;7.25;;;;;;;;;;2074486;28;20033;-58
2023/09/29 04:00:34;;;;;;;11.52;7.57;;;;;;;;;;2074739;28;20474;-58
2023/09/29 04:01:35;;;;;;;12.10;7.20;;;;;;;;;;2074763;28;20069;-58
2023/09/29 04:02:36;;;;;;;10.43;7.07;;;;;;;;;;2074694;28;20481;-58
2023/09/29 04:03:36;;;;;;;10.90;6.93;;;;;;;;;;2074707;28;20030;-57
2023/09/29 04:04:37;;;;;;;10.43;6.78;;;;;;;;;;2074775;28;20045;-58
2023/09/29 04:05:38;;;;;;;10.35;6.55;;;;;;;;;;2074687;28;20026;-58
2023/09/29 04:06:39;;;;;;;14.02;7.03;;;;;;;;;;2074764;28;20026;-57
2023/09/29 04:07:39;;;;;;;11.20;6.90;;;;;;;;;;2074426;28;20045;-58
2023/09/29 04:08:40;;;;;;;11.77;7.18;;;;;;;;;;2074896;28;20129;-57
2023/09/29 04:09:41;;;;;;;13.25;7.25;;;;;;;;;;2074698;28;20485;-58
2023/09/29 04:10:42;;;;;;;10.13;6.85;;;;;;;;;;2074726;28;20034;-58
2023/09/29 04:11:42;;;;;;;12.27;7.20;;;;;;;;;;2074554;28;20061;-57
2023/09/29 04:12:45;;;;;;;9.80;6.72;;;;;;;;;;2074671;28;20034;-58
2023/09/29 04:13:46;;;;;;;12.38;7.07;;;;;;;;;;2074611;28;20037;-57
2023/09/29 04:14:47;;;;;;;10.55;6.82;;;;;;;;;;2074581;28;20520;-57
2023/09/29 04:15:47;;;;;;;13.73;7.90;;;;;;;;;;2074567;28;20058;-58
2023/09/29 04:16:48;;;;;;;12.15;7.60;;;;;;;;;;2074642;28;20030;-58
2023/09/29 04:17:49;;;;;;;9.15;6.88;;;;;;;;;;2073943;28;20497;-57
2023/09/29 04:18:50;;;;;;;11.48;6.85;;;;;;;;;;2074593;28;20029;-58
2023/09/29 04:19:50;;;;;;;9.98;6.75;;;;;;;;;;2074496;28;20034;-58
2023/09/29 04:20:51;;;;;;;9.57;6.85;;;;;;;;;;2074673;28;20037;-57
2023/09/29 04:21:52;;;;;;;15.73;8.82;;;;;;;;;;2074383;28;20026;-58
2023/09/29 04:22:53;;;;;;;10.60;7.40;;;;;;;;;;2074411;28;20041;-58
2023/09/29 04:23:53;;;;;;;10.30;7.10;;;;;;;;;;2074454;28;20053;-57
2023/09/29 04:24:55;;;;;;;10.32;7.10;;;;;;;;;;2074356;28;20508;-58
2023/09/29 04:25:56;;;;;;;9.20;6.68;;;;;;;;;;2074328;28;20041;-57
2023/09/29 04:26:56;;;;;;;10.73;7.53;;;;;;;;;;2074600;28;20398;-58
2023/09/29 04:27:57;;;;;;;11.23;7.78;;;;;;;;;;2074597;28;20030;-57
2023/09/29 04:28:58;;;;;;;12.45;7.30;;;;;;;;;;2074528;28;20103;-57
2023/09/29 04:29:59;;;;;;;11.45;7.13;;;;;;;;;;2074751;28;20041;-58
2023/09/29 04:31:00;;;;;;;11.43;7.60;;;;;;;;;;2074355;28;20050;-56
2023/09/29 04:32:00;;;;;;;9.35;6.82;;;;;;;;;;2074479;28;20041;-56
2023/09/29 04:33:01;;;;;;;11.57;7.68;;;;;;;;;;2074329;28;20128;-58
2023/09/29 04:34:02;;;;;;;11.52;7.80;;;;;;;;;;2074506;28;20030;-58
2023/09/29 04:35:04;;;;;;;10.88;7.50;;;;;;;;;;2074580;28;20026;-58
2023/09/29 04:36:05;;;;;;;11.15;7.50;;;;;;;;;;2073170;28;20394;-57
2023/09/29 04:37:06;;;;;;;11.20;7.15;;;;;;;;;;2073903;28;20041;-58
2023/09/29 04:38:07;;;;;;;11.38;7.55;;;;;;;;;;2074379;28;20072;-58
2023/09/29 04:39:07;;;;;;;9.68;7.03;;;;;;;;;;2074309;28;20040;-58
2023/09/29 04:40:08;;;;;;;9.27;6.95;;;;;;;;;;2074407;28;20038;-57
2023/09/29 04:41:09;;;;;;;10.95;7.13;;;;;;;;;;2074018;28;20406;-57
2023/09/29 04:42:10;;;;;;;12.68;7.47;;;;;;;;;;2074270;28;20049;-57
2023/09/29 04:43:10;;;;;;;10.43;7.47;;;;;;;;;;2074464;28;20079;-58
2023/09/29 04:44:11;;;;;;;12.07;7.20;;;;;;;;;;2074827;28;20030;-57
2023/09/29 04:45:12;;;;;;;12.20;6.85;;;;;;;;;;2074110;28;20485;-57
2023/09/29 04:46:13;;;;;;;11.75;7.45;;;;;;;;;;2074105;28;20077;-58
2023/09/29 04:47:13;;;;;;;15.90;8.00;;;;;;;;;;2074385;28;20041;-58
2023/09/29 04:48:14;;;;;;;9.60;6.63;;;;;;;;;;2074714;28;20037;-58
2023/09/29 04:49:16;;;;;;;11.32;7.55;;;;;;;;;;2074273;28;20033;-57
2023/09/29 04:50:16;;;;;;;11.32;7.38;;;;;;;;;;2074355;28;20064;-58
2023/09/29 04:51:17;;;;;;;12.13;7.45;;;;;;;;;;2074114;28;20057;-58
2023/09/29 04:52:18;;;;;;;10.57;7.00;;;;;;;;;;2074243;28;20033;-58
2023/09/29 04:53:19;;;;;;;14.07;7.57;;;;;;;;;;2074361;28;20041;-57
2023/09/29 04:54:19;;;;;;;12.60;7.97;;;;;;;;;;2074294;28;20049;-57
2023/09/29 04:55:20;;;;;;;12.70;7.13;;;;;;;;;;2074267;28;20030;-57
2023/09/29 04:56:21;;;;;;;11.38;7.30;;;;;;;;;;2074284;28;20401;-58
2023/09/29 04:57:22;;;;;;;12.18;7.63;;;;;;;;;;2074130;28;20049;-58
2023/09/29 04:58:22;;;;;;;12.55;7.03;;;;;;;;;;2074233;28;20037;-57
2023/09/29 04:59:23;;;;;;;10.90;6.65;;;;;;;;;;2074220;28;20053;-58
2023/09/29 05:00:24;;;;;;;10.52;7.30;;;;;;;;;;2074402;28;20393;-58
2023/09/29 05:01:26;;;;;;;9.50;6.72;;;;;;;;;;2074033;28;20049;-57
2023/09/29 05:02:29;;;;;;;10.85;6.75;;;;;;;;;;2073787;28;20050;-58
2023/09/29 05:03:29;;;;;;;14.93;7.10;;;;;;;;;;2074291;28;20508;-57
2023/09/29 05:04:30;;;;;;;9.80;6.97;;;;;;;;;;2074262;28;20045;-58
2023/09/29 05:05:31;;;;;;;13.35;6.57;;;;;;;;;;2074110;28;20046;-58
2023/09/29 05:06:32;;;;;;;8.85;6.30;;;;;;;;;;2074476;28;20037;-58
2023/09/29 05:07:32;;;;;;;11.70;6.53;;;;;;;;;;2074075;28;20040;-57
2023/09/29 05:08:33;;;;;;;14.80;6.85;;;;;;;;;;2073968;28;20038;-57
2023/09/29 05:09:37;;;;;;;8.75;6.13;;;;;;;;;;2074421;28;20039;-57
2023/09/29 05:10:37;;;;;;;9.13;6.32;;;;;;;;;;2073973;28;20025;-57
2023/09/29 05:11:38;;;;;;;10.77;6.50;;;;;;;;;;2073816;28;20474;-57
2023/09/29 05:12:40;;;;;;;9.93;6.00;;;;;;;;;;2074258;28;20104;-58
2023/09/29 05:13:40;;;;;;;11.23;6.90;;;;;;;;;;2074013;28;20038;-57
2023/09/29 05:14:41;;;;;;;11.23;6.38;;;;;;;;;;2073543;28;20038;-57
2023/09/29 05:15:42;;;;;;;12.45;7.35;;;;;;;;;;2074244;28;20401;-58
2023/09/29 05:16:43;;;;;;;12.23;6.70;;;;;;;;;;2074043;28;20034;-57
2023/09/29 05:17:44;;;;;;;12.27;6.72;;;;;;;;;;2074163;28;20037;-58
2023/09/29 05:18:44;;;;;;;8.80;6.25;;;;;;;;;;2074107;28;20397;-58
2023/09/29 05:19:45;;;;;;;10.25;6.15;;;;;;;;;;2073990;28;20050;-58
2023/09/29 05:20:46;;;;;;;9.80;6.05;;;;;;;;;;2073932;28;20049;-58
2023/09/29 05:21:46;;;;;;;12.57;6.82;;;;;;;;;;2074509;28;20038;-58
2023/09/29 05:22:47;;;;;;;8.32;5.40;;;;;;;;;;2073910;28;20038;-57
2023/09/29 05:23:48;;;;;;;8.77;5.60;;;;;;;;;;2074068;28;20053;-58
2023/09/29 05:24:49;;;;;;;9.32;5.78;;;;;;;;;;2073819;28;20489;-58
2023/09/29 05:25:50;;;;;;;11.13;5.68;;;;;;;;;;2074129;28;20034;-58
2023/09/29 05:26:51;;;;;;;9.75;6.30;;;;;;;;;;2074018;28;20045;-59
2023/09/29 05:27:51;;;;;;;9.32;6.40;;;;;;;;;;2075158;28;20061;-62
2023/09/29 05:28:53;;;;;;;12.65;6.40;;;;;;;;;;2074879;28;20493;-58
2023/09/29 05:29:54;;;;;;;7.95;5.15;;;;;;;;;;2075224;28;20037;-58
2023/09/29 05:30:55;;;;;;;8.35;5.30;;;;;;;;;;2075043;28;20049;-58
2023/09/29 05:31:55;;;;;;;10.30;5.32;;;;;;;;;;2074820;28;20084;-58
2023/09/29 05:32:56;;;;;;;7.35;5.20;;;;;;;;;;2074779;28;20038;-57
2023/09/29 05:33:57;;;;;;;6.88;4.60;;;;;;;;;;2074092;28;20048;-57
2023/09/29 05:34:57;;;;;;;8.95;5.53;;;;;;;;;;2073641;28;20077;-57
2023/09/29 05:35:58;;;;;;;10.77;5.35;;;;;;;;;;2073714;28;20057;-58
2023/09/29 05:36:59;;;;;;;10.75;5.20;;;;;;;;;;2073466;28;20042;-57
2023/09/29 05:38:00;;;;;;;7.90;5.03;;;;;;;;;;2073136;28;20030;-57
2023/09/29 05:39:00;;;;;;;7.90;4.95;;;;;;;;;;2073642;28;20045;-57
2023/09/29 05:40:03;;;;;;;8.60;4.47;;;;;;;;;;2074231;28;20033;-57
2023/09/29 05:41:04;;;;;;;7.40;4.72;;;;;;;;;;2073831;28;20046;-57
2023/09/29 05:42:05;;;;;;;9.57;4.82;;;;;;;;;;2073738;28;20462;-57
2023/09/29 05:43:10;;;;;;;9.88;4.63;;;;;;;;;;2074160;28;20046;-57
2023/09/29 05:44:10;;;;;;;9.90;4.55;;;;;;;;;;2073970;28;20034;-56
2023/09/29 05:45:14;;;;;;;9.80;5.10;;;;;;;;;;2073948;28;20050;-57
2023/09/29 05:46:15;;;;;;;8.15;5.00;;;;;;;;;;2073925;28;20084;-57
2023/09/29 05:47:16;;;;;;;9.80;4.95;;;;;;;;;;2073870;28;20053;-57
2023/09/29 05:48:17;;;;;;;7.43;4.68;;;;;;;;;;2073126;28;20046;-57
2023/09/29 05:49:18;;;;;;;7.45;4.45;;;;;;;;;;2072917;28;20057;-57
2023/09/29 05:50:19;;;;;;;8.55;5.05;;;;;;;;;;2073919;28;20406;-57
2023/09/29 05:51:19;;;;;;;11.90;5.13;;;;;;;;;;2073753;28;20049;-58
2023/09/29 05:52:20;;;;;;;9.07;4.82;;;;;;;;;;2073803;28;20121;-57
2023/09/29 05:53:21;;;;;;;8.68;5.32;;;;;;;;;;2073519;28;20096;-57
2023/09/29 05:54:21;;;;;;;9.30;4.80;;;;;;;;;;2073813;28;20041;-57
2023/09/29 05:55:23;;;;;;;8.27;4.60;;;;;;;;;;2073577;28;20042;-57
2023/09/29 05:56:23;;;;;;;10.02;4.88;;;;;;;;;;2074048;28;20054;-57
2023/09/29 05:57:24;;;;;;;8.43;4.72;;;;;;;;;;2073762;28;20056;-57
2023/09/29 05:58:26;;;;;;;8.55;5.13;;;;;;;;;;2073522;28;20080;-58
2023/09/29 05:59:28;;;;;;;10.88;5.40;;;;;;;;;;2073739;28;20033;-57
2023/09/29 06:00:29;;;;;;;9.25;4.93;;;;;;;;;;2073862;28;20042;-57
2023/09/29 06:01:30;;;;;;;8.68;4.88;;;;;;;;;;2073137;28;20041;-57
2023/09/29 06:02:31;;;;;;;6.75;4.72;;;;;;;;;;2073670;28;20114;-57